Time;durP1;ratioP1;P1;durP2;ratioP2;P2;SDS_P1;SDS_P2;PMS_P1;PMS_P2;Temp;Humidity;BMP_temperature;BMP_pressure;BME280_temperature;BME280_humidity;BME280_pressure;Samples;Min_cycle;Max_cycle;Signal;HPM_P1;HPM_P2
2024/03/16 00:00:07;;;;;;;10.53;9.43;;;;;;;4.48;85.81;96704.25;5116108;27;20265;-89
2024/03/16 00:02:35;;;;;;;10.13;9.13;;;;;;;4.76;85.86;96742.03;5100491;27;20229;-89
2024/03/16 00:05:02;;;;;;;16.53;10.97;;;;;;;5.00;84.84;96739.97;5099394;27;20305;-87
2024/03/16 00:07:29;;;;;;;13.50;10.93;;;;;;;4.94;83.91;96731.19;5116045;27;20202;-88
2024/03/16 00:09:56;;;;;;;13.90;10.37;;;;;;;4.69;84.58;96717.72;5099664;27;20652;-90
2024/03/16 00:12:23;;;;;;;12.87;9.60;;;;;;;4.82;85.54;96747.13;5116078;27;20203;-89
2024/03/16 00:14:50;;;;;;;12.33;8.70;;;;;;;4.56;85.66;96732.81;5099182;27;20232;-88
2024/03/16 00:17:19;;;;;;;8.80;8.00;;;;;;;4.61;85.90;96732.13;5099224;27;20199;-89
2024/03/16 00:19:46;;;;;;;10.50;9.07;;;;;;;4.45;85.97;96723.19;5115956;27;20206;-88
2024/03/16 00:22:15;;;;;;;9.37;8.37;;;;;;;4.66;86.25;96743.50;5115265;27;20206;-88
2024/03/16 00:24:42;;;;;;;10.37;8.40;;;;;;;4.36;86.20;96711.47;5115913;27;20305;-89
2024/03/16 00:27:09;;;;;;;9.73;8.70;;;;;;;4.49;86.81;96758.59;5115311;28;20195;-89
2024/03/16 00:29:36;;;;;;;9.53;8.13;;;;;;;4.56;86.26;96724.91;5099516;28;20194;-89
2024/03/16 00:32:03;;;;;;;9.77;8.33;;;;;;;4.52;86.22;96713.25;5115660;28;20202;-88
2024/03/16 00:34:30;;;;;;;11.43;9.00;;;;;;;4.72;86.14;96710.09;5115517;28;20202;-89
2024/03/16 00:37:02;;;;;;;10.77;8.83;;;;;;;4.97;84.68;96716.72;5098887;28;20247;-89
2024/03/16 00:39:29;;;;;;;11.47;8.57;;;;;;;5.05;84.67;96738.19;5116086;28;20207;-88
2024/03/16 00:41:58;;;;;;;10.17;8.83;;;;;;;4.49;84.36;96653.16;5115480;28;20247;-89
2024/03/16 00:44:25;;;;;;;11.60;8.80;;;;;;;4.88;84.43;96708.44;5116319;28;20610;-89
2024/03/16 00:46:52;;;;;;;10.43;8.80;;;;;;;4.94;84.60;96727.75;5115991;28;20198;-89
2024/03/16 00:49:21;;;;;;;10.13;8.30;;;;;;;4.51;85.58;96706.41;5115998;28;20194;-88
2024/03/16 00:51:49;;;;;;;9.87;8.87;;;;;;;4.74;86.13;96721.19;5116035;28;20194;-89
2024/03/16 00:54:18;;;;;;;11.03;9.27;;;;;;;4.31;86.09;96664.78;5099711;28;20195;-89
2024/03/16 00:56:46;;;;;;;11.30;8.70;;;;;;;4.74;86.67;96712.50;5115925;27;20267;-89
2024/03/16 00:59:13;;;;;;;9.10;8.17;;;;;;;4.80;86.20;96729.94;5119067;27;20194;-89
2024/03/16 01:01:40;;;;;;;10.77;9.27;;;;;;;4.53;85.65;96679.78;5119952;27;20354;-89
2024/03/16 01:04:08;;;;;;;9.70;8.70;;;;;;;4.92;85.48;96706.91;5119802;27;20275;-87
2024/03/16 01:06:35;;;;;;;9.63;8.23;;;;;;;4.55;85.54;96696.97;5120267;27;20195;-88
2024/03/16 01:09:03;;;;;;;11.20;8.13;;;;;;;4.59;86.53;96703.34;5119023;27;20263;-89
2024/03/16 01:11:32;;;;;;;9.93;8.53;;;;;;;4.66;86.14;96711.88;5102422;27;20744;-89
2024/03/16 01:13:59;;;;;;;10.80;8.33;;;;;;;4.54;86.28;96716.47;5119066;27;20198;-89
2024/03/16 01:16:26;;;;;;;9.30;8.27;;;;;;;4.49;86.73;96713.78;5119102;27;20198;-90
2024/03/16 01:18:55;;;;;;;9.17;8.23;;;;;;;4.21;87.01;96677.00;5118938;27;20206;-90
2024/03/16 01:21:22;;;;;;;10.50;8.53;;;;;;;4.29;86.92;96687.13;5119361;27;20195;-90
2024/03/16 01:23:49;;;;;;;9.93;8.70;;;;;;;3.84;86.96;96627.53;5118737;27;20214;-89
2024/03/16 01:26:19;;;;;;;9.87;8.73;;;;;;;4.30;87.22;96692.19;5119992;27;20195;-90
2024/03/16 01:28:47;;;;;;;10.60;8.23;;;;;;;4.50;86.80;96711.94;5119378;27;20293;-90
2024/03/16 01:31:14;;;;;;;10.50;8.53;;;;;;;4.28;87.00;96675.00;5118522;27;20260;-90
2024/03/16 01:33:44;;;;;;;12.13;9.17;;;;;;;4.23;86.55;96659.16;5119441;27;20566;-90
2024/03/16 01:36:11;;;;;;;11.03;8.93;;;;;;;4.30;87.46;96696.66;5119159;27;20260;-90
2024/03/16 01:38:40;;;;;;;11.33;9.00;;;;;;;4.43;87.43;96711.31;5102294;27;20195;-90
2024/03/16 01:41:10;;;;;;;11.20;8.80;;;;;;;4.49;86.40;96687.41;5119145;27;20657;-90
2024/03/16 01:43:37;;;;;;;10.17;8.33;;;;;;;4.62;86.49;96705.50;5118492;27;20229;-89
2024/03/16 01:46:05;;;;;;;11.03;9.27;;;;;;;4.62;86.47;96709.97;5119380;27;20198;-90
2024/03/16 01:48:31;;;;;;;13.53;9.17;;;;;;;4.13;87.12;96671.13;5119041;27;20608;-90
2024/03/16 01:50:59;;;;;;;12.00;8.43;;;;;;;4.36;86.48;96691.19;5101812;27;20238;-90
2024/03/16 01:53:27;;;;;;;10.70;8.87;;;;;;;4.39;86.40;96692.56;5118532;27;20198;-90
2024/03/16 01:55:54;;;;;;;9.43;8.07;;;;;;;4.54;86.61;96703.28;5118200;27;20681;-89
2024/03/16 01:58:21;;;;;;;10.13;9.03;;;;;;;4.33;86.74;96709.31;5102122;27;20267;-89
2024/03/16 02:00:48;;;;;;;12.87;8.77;;;;;;;4.34;86.71;96714.38;5118180;27;20231;-89
2024/03/16 02:03:15;;;;;;;12.63;8.80;;;;;;;4.35;87.33;96715.16;5101733;27;20252;-89
2024/03/16 02:05:46;;;;;;;12.13;8.07;;;;;;;3.95;87.61;96666.16;5101652;27;20779;-89
2024/03/16 02:08:13;;;;;;;10.87;7.13;;;;;;;4.19;87.69;96706.25;5117800;28;20199;-88
2024/03/16 02:10:40;;;;;;;10.50;8.30;;;;;;;4.03;87.13;96664.94;5117920;27;20206;-88
2024/03/16 02:13:07;;;;;;;19.23;7.47;;;;;;;3.98;87.39;96664.84;5118017;27;20206;-89
2024/03/16 02:15:34;;;;;;;13.80;7.00;;;;;;;4.26;87.60;96708.69;5118440;27;20201;-88
2024/03/16 02:18:02;;;;;;;10.77;6.97;;;;;;;3.99;88.00;96698.03;5118504;27;20228;-89
2024/03/16 02:20:31;;;;;;;14.97;7.13;;;;;;;3.75;88.26;96661.34;5101873;27;20716;-89
2024/03/16 02:22:58;;;;;;;11.30;7.17;;;;;;;3.87;88.21;96688.41;5117923;27;20669;-89
2024/03/16 02:25:26;;;;;;;16.57;7.10;;;;;;;3.75;88.12;96677.13;5117754;27;20218;-89
2024/03/16 02:27:53;;;;;;;22.03;7.40;;;;;;;3.87;88.60;96688.41;5117803;27;20221;-89
2024/03/16 02:30:21;;;;;;;20.97;7.47;;;;;;;4.42;87.12;96728.97;5118144;27;20198;-89
2024/03/16 02:32:48;;;;;;;7.40;6.43;;;;;;;3.96;87.11;96680.91;5117629;27;20198;-89
2024/03/16 02:35:18;;;;;;;12.00;6.37;;;;;;;4.16;87.76;96701.47;5117689;27;20198;-89
2024/03/16 02:37:45;;;;;;;8.13;6.93;;;;;;;4.18;86.89;96715.16;5117904;27;20236;-89
2024/03/16 02:40:13;;;;;;;10.23;6.40;;;;;;;4.27;86.28;96739.28;5117795;27;20202;-90
2024/03/16 02:42:41;;;;;;;15.40;7.00;;;;;;;4.09;86.30;96701.63;5117617;27;20736;-90
2024/03/16 02:45:09;;;;;;;9.00;6.97;;;;;;;3.83;86.11;96681.22;5117824;27;20222;-90
2024/03/16 02:47:38;;;;;;;8.90;6.70;;;;;;;3.74;85.79;96675.56;5101063;27;20209;-90
2024/03/16 02:50:10;;;;;;;10.67;7.87;;;;;;;4.07;86.05;96735.31;5101363;27;20263;-90
2024/03/16 02:52:37;;;;;;;9.13;6.50;;;;;;;4.05;85.91;96707.63;5117717;27;20203;-89
2024/03/16 02:55:05;;;;;;;9.57;7.37;;;;;;;4.07;85.69;96759.03;5117856;27;20280;-90
2024/03/16 02:57:32;;;;;;;9.53;6.40;;;;;;;3.73;86.40;96687.13;5117135;27;20203;-89
2024/03/16 03:00:00;;;;;;;9.33;7.03;;;;;;;3.90;86.44;96727.41;5100670;27;20233;-90
2024/03/16 03:02:29;;;;;;;17.53;7.77;;;;;;;3.71;87.26;96704.19;5117483;27;20203;-90
2024/03/16 03:04:57;;;;;;;16.27;6.70;;;;;;;4.13;86.82;96744.88;5117499;27;20218;-90
2024/03/16 03:07:25;;;;;;;9.30;6.30;;;;;;;3.98;86.86;96751.75;5117137;27;20195;-90
2024/03/16 03:09:52;;;;;;;13.53;6.70;;;;;;;3.77;87.88;96709.31;5117142;27;20205;-91
2024/03/16 03:12:19;;;;;;;10.23;6.80;;;;;;;3.79;87.18;96717.75;5116903;27;20255;-90
2024/03/16 03:14:47;;;;;;;19.17;6.93;;;;;;;3.86;87.16;96739.44;5116588;27;20259;-90
2024/03/16 03:17:14;;;;;;;9.07;5.60;;;;;;;4.00;86.77;96765.47;5116521;27;20195;-90
2024/03/16 03:19:44;;;;;;;8.87;6.17;;;;;;;3.86;87.17;96763.16;5116507;27;20198;-90
2024/03/16 03:22:12;;;;;;;23.17;6.13;;;;;;;3.83;87.61;96757.56;5117728;27;20634;-90
2024/03/16 03:24:39;;;;;;;22.93;6.17;;;;;;;3.54;87.46;96731.28;5116583;27;20223;-90
2024/03/16 03:27:10;;;;;;;6.10;5.40;;;;;;;3.79;87.52;96773.03;5100391;27;20570;-90
2024/03/16 03:29:38;;;;;;;20.17;7.30;;;;;;;3.84;86.92;96772.34;5100773;27;20198;-90
2024/03/16 03:32:06;;;;;;;33.60;6.80;;;;;;;3.70;86.57;96760.50;5116117;27;20194;-90
2024/03/16 03:34:34;;;;;;;21.73;5.50;;;;;;;3.34;87.11;96720.44;5116718;27;20213;-90
2024/03/16 03:37:01;;;;;;;5.00;4.23;;;;;;;3.56;86.97;96744.19;5100671;27;20206;-90
2024/03/16 03:39:29;;;;;;;5.87;5.27;;;;;;;3.44;86.66;96739.00;5100093;27;20194;-90
2024/03/16 03:41:56;;;;;;;11.43;4.97;;;;;;;3.28;86.60;96700.31;5115587;27;20203;-90
2024/03/16 03:44:35;;;;;;;7.23;4.83;;;;;;;3.18;86.03;96701.75;5099935;27;20214;-90
2024/03/16 03:47:03;;;;;;;4.43;4.00;;;;;;;3.57;85.87;96751.88;5118633;27;20551;-90
2024/03/16 03:49:32;;;;;;;5.47;4.53;;;;;;;3.53;84.88;96742.06;5116476;27;20226;-90
2024/03/16 03:52:01;;;;;;;5.07;4.43;;;;;;;3.64;85.33;96754.34;5117250;27;20233;-90
2024/03/16 03:54:29;;;;;;;6.43;4.33;;;;;;;3.54;84.71;96754.19;5116376;27;20229;-90
2024/03/16 03:56:57;;;;;;;6.57;4.87;;;;;;;3.37;85.14;96754.16;5115950;27;20198;-90
2024/03/16 03:59:25;;;;;;;5.87;5.33;;;;;;;3.42;84.42;96739.25;5116062;27;20198;-90
2024/03/16 04:01:53;;;;;;;5.10;4.60;;;;;;;3.43;85.03;96790.84;5099783;27;20783;-91
2024/03/16 04:04:22;;;;;;;6.20;4.83;;;;;;;2.93;84.90;96709.94;5115923;27;20225;-91
2024/03/16 04:06:49;;;;;;;5.17;4.67;;;;;;;2.89;84.80;96705.38;5116303;27;20202;-92
2024/03/16 04:09:16;;;;;;;6.83;5.27;;;;;;;3.31;85.48;96773.50;5115957;28;20279;-90
2024/03/16 04:11:43;;;;;;;9.23;6.33;;;;;;;3.30;85.41;96779.81;5116819;27;20198;-92
2024/03/16 04:14:10;;;;;;;12.20;5.77;;;;;;;2.83;85.25;96708.97;5116009;27;20255;-91
2024/03/16 04:16:37;;;;;;;12.07;6.97;;;;;;;3.17;85.74;96776.41;5115707;27;20206;-92
2024/03/16 04:19:04;;;;;;;20.10;7.13;;;;;;;3.04;85.41;96771.41;5116382;28;20614;-92
2024/03/16 04:21:31;;;;;;;20.83;7.87;;;;;;;3.11;85.30;96784.44;5116242;28;20198;-92
2024/03/16 04:24:00;;;;;;;22.07;7.30;;;;;;;2.99;85.42;96758.19;5115852;27;20216;-90
2024/03/16 04:26:28;;;;;;;17.77;6.73;;;;;;;2.82;85.74;96773.06;5115810;27;20230;-91
2024/03/16 04:28:55;;;;;;;10.10;8.30;;;;;;;2.74;85.51;96752.41;5116175;28;20195;-95
2024/03/16 04:31:23;;;;;;;9.13;7.00;;;;;;;2.79;83.84;96723.59;5116576;28;20221;-92
2024/03/16 04:33:51;;;;;;;15.33;12.83;;;;;;;2.82;84.38;96765.97;5115650;28;20259;-89
2024/03/16 04:36:18;;;;;;;32.87;12.17;;;;;;;1.92;86.29;96729.59;5115395;28;20206;-81
2024/03/16 04:38:45;;;;;;;11.10;9.07;;;;;;;2.66;86.89;96806.09;5114925;28;20225;-88
2024/03/16 04:41:13;;;;;;;17.57;9.83;;;;;;;2.47;86.60;96781.78;5115790;28;20195;-90
2024/03/16 04:43:41;;;;;;;11.20;8.70;;;;;;;2.34;85.62;96755.75;5099072;28;20302;-90
2024/03/16 04:46:09;;;;;;;10.87;9.77;;;;;;;2.59;85.95;96795.72;5115958;28;20339;-90
2024/03/16 04:48:37;;;;;;;15.73;10.70;;;;;;;2.42;84.95;96764.09;5099371;28;20257;-89
2024/03/16 04:51:05;;;;;;;19.97;11.70;;;;;;;2.56;83.85;96772.53;5115319;28;20195;-90
2024/03/16 04:53:32;;;;;;;15.87;11.67;;;;;;;2.59;84.40;96779.16;5115644;28;20205;-91
2024/03/16 04:55:59;;;;;;;24.73;10.80;;;;;;;2.56;85.19;96785.69;5115374;28;20252;-91
2024/03/16 04:58:27;;;;;;;16.70;11.23;;;;;;;2.37;85.35;96824.41;5099144;28;20195;-91
2024/03/16 05:00:55;;;;;;;17.30;13.13;;;;;;;2.59;86.05;96821.19;5115671;28;20222;-90
2024/03/16 05:03:26;;;;;;;19.47;14.03;;;;;;;2.66;85.29;96820.03;5115723;28;20203;-96
2024/03/16 05:05:56;;;;;;;18.77;14.33;;;;;;;2.70;84.82;96812.50;5115806;28;20622;-92
2024/03/16 05:08:23;;;;;;;10.87;9.27;;;;;;;2.57;84.98;96834.56;5115990;28;20206;-91
2024/03/16 05:10:51;;;;;;;9.87;7.93;;;;;;;2.38;85.55;96799.72;5115461;28;20202;-91
2024/03/16 05:13:19;;;;;;;12.60;9.20;;;;;;;2.52;85.41;96823.13;5099240;28;20199;-94
2024/03/16 05:15:46;;;;;;;15.33;10.30;;;;;;;2.63;85.96;96835.47;5115772;28;20681;-88
2024/03/16 05:18:14;;;;;;;13.27;10.47;;;;;;;2.69;86.19;96837.19;5115696;28;20199;-93
2024/03/16 05:20:41;;;;;;;16.13;12.70;;;;;;;3.01;85.89;96826.28;5098751;28;20195;-94
2024/03/16 05:23:09;;;;;;;14.20;11.83;;;;;;;3.08;85.55;96803.31;5133329;27;20198;-92
2024/03/16 05:25:37;;;;;;;15.03;12.17;;;;;;;3.02;85.26;96818.19;5115226;28;20704;-91
2024/03/16 05:28:04;;;;;;;29.20;18.63;;;;;;;3.25;85.12;96829.66;5115209;28;20206;-91
2024/03/16 05:30:32;;;;;;;29.50;18.10;;;;;;;3.06;85.46;96842.16;5099425;28;20195;-87
2024/03/16 05:33:00;;;;;;;18.77;13.67;;;;;;;3.09;85.28;96850.41;5115037;28;20199;-91
2024/03/16 05:35:30;;;;;;;21.60;13.03;;;;;;;3.06;85.49;96850.88;5116157;28;20252;-90
2024/03/16 05:37:58;;;;;;;22.37;14.60;;;;;;;2.84;85.77;96836.72;5115378;28;20206;-90
2024/03/16 05:40:25;;;;;;;32.83;15.87;;;;;;;2.90;86.54;96823.47;5115038;28;20259;-91
2024/03/16 05:42:52;;;;;;;26.07;16.97;;;;;;;3.05;86.36;96827.44;5110641;28;20290;-91
2024/03/16 05:45:18;;;;;;;29.00;15.73;;;;;;;2.69;86.97;96772.28;5098923;28;20219;-91
2024/03/16 05:47:45;;;;;;;22.87;12.77;;;;;;;2.90;87.69;96791.09;5108117;27;20203;-90
2024/03/16 05:50:12;;;;;;;22.00;15.00;;;;;;;2.86;86.99;96787.34;5119255;27;20205;-91
2024/03/16 05:52:40;;;;;;;19.87;14.80;;;;;;;3.05;87.44;96812.44;5118844;27;20206;-90
2024/03/16 05:55:07;;;;;;;18.93;14.50;;;;;;;3.31;87.02;96818.22;5118920;27;20198;-90
2024/03/16 05:57:34;;;;;;;19.83;15.07;;;;;;;3.32;86.96;96822.44;5119370;27;20221;-91
2024/03/16 06:00:00;;;;;;;19.30;14.93;;;;;;;2.97;87.07;96773.38;5095346;28;20224;-90
2024/03/16 06:02:30;;;;;;;28.67;13.70;;;;;;;2.83;88.50;96787.81;5101498;27;20195;-90
2024/03/16 06:04:57;;;;;;;28.77;11.33;;;;;;;3.19;89.15;96852.44;5109630;27;20195;-90
2024/03/16 06:07:24;;;;;;;11.27;8.60;;;;;;;3.10;88.59;96812.56;5115201;27;20194;-90
2024/03/16 06:09:51;;;;;;;19.97;9.53;;;;;;;3.35;88.97;96840.41;5100725;27;20198;-86
2024/03/16 06:12:18;;;;;;;24.03;8.00;;;;;;;3.60;88.89;96829.53;5116668;27;20202;-86
2024/03/16 06:14:45;;;;;;;44.33;9.53;;;;;;;3.31;89.21;96784.81;5099549;27;20259;-88
2024/03/16 06:17:12;;;;;;;8.77;6.90;;;;;;;4.01;88.80;96841.59;5118023;27;20579;-87
2024/03/16 06:19:39;;;;;;;21.40;7.77;;;;;;;4.16;88.36;96822.63;5116132;27;20648;-87
2024/03/16 06:22:07;;;;;;;14.80;6.90;;;;;;;4.19;87.81;96821.38;5116474;27;20727;-87
2024/03/16 06:24:34;;;;;;;22.13;7.60;;;;;;;4.27;88.38;96799.88;5108838;28;20207;-86
2024/03/16 06:27:05;;;;;;;18.00;8.33;;;;;;;4.56;87.44;96819.81;5096660;28;20656;-86
2024/03/16 06:29:32;;;;;;;14.40;6.87;;;;;;;4.75;87.52;96845.91;5097413;28;20198;-87
2024/03/16 06:32:06;;;;;;;18.03;9.53;;;;;;;4.47;87.24;96800.19;5103900;27;20203;-86
2024/03/16 06:34:33;;;;;;;11.97;7.23;;;;;;;4.80;87.71;96838.06;5116826;27;20208;-87
2024/03/16 06:37:00;;;;;;;9.53;7.40;;;;;;;4.41;86.86;96775.59;5099361;28;20264;-86
2024/03/16 06:39:27;;;;;;;13.50;8.03;;;;;;;4.97;86.80;96851.25;5106869;27;20206;-86
2024/03/16 06:41:54;;;;;;;18.23;8.83;;;;;;;4.46;87.29;96766.97;5111590;28;20299;-85
2024/03/16 06:44:21;;;;;;;13.33;8.83;;;;;;;4.59;87.10;96790.34;5102855;28;20319;-86
2024/03/16 06:46:47;;;;;;;15.77;7.67;;;;;;;5.03;87.67;96874.78;5115964;27;20226;-85
2024/03/16 06:49:16;;;;;;;11.87;7.70;;;;;;;5.07;86.74;96848.72;5100820;28;20199;-86
2024/03/16 06:51:43;;;;;;;11.07;8.03;;;;;;;5.11;86.83;96882.31;5113061;27;20599;-86
2024/03/16 06:54:10;;;;;;;30.63;8.93;;;;;;;4.74;87.05;96839.84;5115877;27;20201;-86
2024/03/16 06:56:37;;;;;;;8.87;7.03;;;;;;;4.56;86.95;96806.63;5116012;27;20195;-86
2024/03/16 06:59:04;;;;;;;10.73;8.03;;;;;;;4.72;87.76;96817.38;5117226;27;20209;-86
2024/03/16 07:01:31;;;;;;;15.07;9.03;;;;;;;5.18;87.58;96886.59;5116589;27;20218;-86
2024/03/16 07:04:00;;;;;;;19.40;9.73;;;;;;;4.97;87.53;96833.56;5116615;27;20579;-85
2024/03/16 07:06:30;;;;;;;12.80;8.70;;;;;;;5.11;87.83;96882.31;5115802;27;20218;-86
2024/03/16 07:09:00;;;;;;;16.60;10.60;;;;;;;5.26;88.14;96857.94;5116455;27;20202;-86
2024/03/16 07:11:26;;;;;;;56.47;33.37;;;;;;;5.63;87.73;96879.25;5104569;28;20207;-86
2024/03/16 07:13:54;;;;;;;44.80;26.40;;;;;;;5.84;87.08;96876.81;5096134;28;20216;-86
2024/03/16 07:16:21;;;;;;;37.97;27.03;;;;;;;5.75;86.85;96859.81;5078910;28;20203;-85
2024/03/16 07:18:48;;;;;;;27.20;23.77;;;;;;;5.98;86.68;96877.28;5096173;27;20191;-86
2024/03/16 07:21:15;;;;;;;25.87;20.37;;;;;;;6.01;86.37;96869.66;5116455;27;20202;-86
2024/03/16 07:23:43;;;;;;;67.63;51.40;;;;;;;5.95;85.75;96875.13;5115389;27;20206;-86
2024/03/16 07:26:10;;;;;;;40.90;32.57;;;;;;;5.59;84.84;96817.41;5116241;27;20225;-87
2024/03/16 07:28:38;;;;;;;31.10;23.07;;;;;;;6.27;84.91;96877.78;5114562;27;20187;-87
2024/03/16 07:31:05;;;;;;;100.33;35.17;;;;;;;6.15;83.71;96856.81;5113656;27;20202;-86
2024/03/16 07:33:32;;;;;;;15.83;13.90;;;;;;;6.25;82.95;96838.41;5095300;28;20694;-87
2024/03/16 07:35:59;;;;;;;15.43;13.03;;;;;;;6.15;84.05;96826.94;5095544;28;20187;-86
2024/03/16 07:38:26;;;;;;;21.70;15.87;;;;;;;6.65;83.01;96862.75;5095831;28;20581;-88
2024/03/16 07:40:56;;;;;;;26.40;21.40;;;;;;;7.27;81.48;96883.25;5078851;28;20303;-87
2024/03/16 07:43:23;;;;;;;30.77;23.57;;;;;;;8.02;78.56;96875.88;5095010;27;20277;-86
2024/03/16 07:45:50;;;;;;;20.87;16.20;;;;;;;7.77;78.39;96869.41;5115561;27;20221;-86
2024/03/16 07:48:17;;;;;;;14.50;11.87;;;;;;;7.54;78.04;96860.06;5098616;27;20202;-87
2024/03/16 07:50:44;;;;;;;15.33;11.67;;;;;;;7.85;76.81;96846.91;5114128;27;20566;-85
2024/03/16 07:53:11;;;;;;;15.03;11.57;;;;;;;8.20;76.25;96850.69;5115381;27;20202;-86
2024/03/16 07:55:39;;;;;;;14.13;11.10;;;;;;;8.13;74.72;96819.16;5115101;27;20191;-86
2024/03/16 07:58:07;;;;;;;13.10;11.03;;;;;;;8.89;74.20;96889.97;5095334;28;20199;-86
2024/03/16 08:00:34;;;;;;;13.27;10.37;;;;;;;8.84;73.10;96874.06;5093370;28;20245;-85
2024/03/16 08:03:01;;;;;;;54.37;34.67;;;;;;;8.33;74.69;96829.75;5094784;28;20661;-83
2024/03/16 08:05:30;;;;;;;31.53;22.67;;;;;;;9.09;72.59;96846.66;5094723;28;20248;-84
2024/03/16 08:07:57;;;;;;;15.37;13.10;;;;;;;9.27;73.77;96858.56;5094271;28;20642;-84
2024/03/16 08:10:24;;;;;;;16.93;11.93;;;;;;;9.48;71.30;96870.72;5102795;27;20214;-84
2024/03/16 08:12:51;;;;;;;13.13;11.33;;;;;;;9.62;72.22;96841.69;5115276;27;20198;-84
2024/03/16 08:15:18;;;;;;;13.17;10.73;;;;;;;9.65;71.64;96843.03;5114665;27;20677;-84
2024/03/16 08:17:45;;;;;;;12.17;10.00;;;;;;;10.01;69.90;96844.41;5114628;27;20243;-84
2024/03/16 08:20:13;;;;;;;12.43;10.57;;;;;;;10.32;69.44;96841.56;5115505;27;20198;-84
2024/03/16 08:22:40;;;;;;;12.87;11.03;;;;;;;10.41;68.46;96866.50;5114912;27;20669;-84
2024/03/16 08:25:07;;;;;;;10.93;9.83;;;;;;;10.47;66.98;96845.97;5114727;27;20285;-86
2024/03/16 08:27:36;;;;;;;11.90;9.60;;;;;;;10.71;66.04;96843.38;5114880;27;20218;-85
2024/03/16 08:30:03;;;;;;;12.77;9.87;;;;;;;10.29;69.79;96848.22;5103532;28;20235;-85
2024/03/16 08:32:30;;;;;;;12.27;10.53;;;;;;;10.67;67.54;96874.28;5095445;28;20252;-86
2024/03/16 08:34:57;;;;;;;13.73;11.77;;;;;;;10.51;67.09;96809.75;5095209;28;20199;-85
2024/03/16 08:37:24;;;;;;;12.10;9.83;;;;;;;10.92;65.05;96807.50;5094844;28;20196;-85
2024/03/16 08:39:51;;;;;;;12.90;11.47;;;;;;;11.24;63.54;96828.19;5094672;28;20204;-86
2024/03/16 08:42:18;;;;;;;12.23;8.90;;;;;;;11.39;62.12;96821.91;5094692;28;20195;-86
2024/03/16 08:44:45;;;;;;;15.33;12.40;;;;;;;12.33;61.47;96863.84;5094618;28;20203;-86
2024/03/16 08:47:12;;;;;;;26.27;20.03;;;;;;;11.99;62.01;96827.53;5076666;28;20224;-84
2024/03/16 08:49:39;;;;;;;11.13;9.73;;;;;;;11.12;61.77;96859.75;5091219;28;20610;-84
2024/03/16 08:52:07;;;;;;;10.20;8.90;;;;;;;11.11;60.96;96868.03;5057336;28;20184;-84
2024/03/16 08:54:34;;;;;;;9.47;8.53;;;;;;;11.95;57.67;96857.72;5074061;28;20208;-84
2024/03/16 08:57:01;;;;;;;12.70;10.90;;;;;;;11.85;58.50;96823.19;5090650;28;20222;-85
2024/03/16 08:59:28;;;;;;;13.70;11.30;;;;;;;12.19;59.52;96866.44;5115031;28;20669;-87
2024/03/16 09:01:55;;;;;;;12.73;10.43;;;;;;;12.35;58.54;96860.88;5115269;28;20206;-88
2024/03/16 09:04:22;;;;;;;12.23;10.47;;;;;;;12.35;59.16;96818.19;5093834;28;20662;-85
2024/03/16 09:06:49;;;;;;;13.27;10.17;;;;;;;12.41;58.73;96846.38;5106487;28;20218;-85
2024/03/16 09:09:16;;;;;;;13.50;10.97;;;;;;;12.78;57.67;96816.16;5114637;28;20195;-85
2024/03/16 09:11:43;;;;;;;13.50;11.67;;;;;;;12.57;60.82;96881.66;5114797;28;20238;-85
2024/03/16 09:14:10;;;;;;;14.13;11.37;;;;;;;12.95;58.18;96877.03;5114900;28;20201;-85
2024/03/16 09:16:40;;;;;;;14.23;11.63;;;;;;;12.76;58.76;96879.75;5113846;28;20221;-85
2024/03/16 09:19:07;;;;;;;13.97;11.43;;;;;;;12.89;57.48;96865.63;5118193;27;20205;-85
2024/03/16 09:21:34;;;;;;;15.73;11.83;;;;;;;13.20;56.40;96875.75;5117932;27;20195;-85
2024/03/16 09:24:01;;;;;;;13.97;11.87;;;;;;;12.75;57.45;96877.38;5117553;27;20207;-84
2024/03/16 09:26:28;;;;;;;14.03;12.37;;;;;;;13.08;57.81;96878.13;5117782;27;20222;-84
2024/03/16 09:28:55;;;;;;;15.00;13.27;;;;;;;12.51;57.02;96874.78;5118469;27;20205;-84
2024/03/16 09:31:24;;;;;;;16.63;13.10;;;;;;;12.68;56.97;96819.78;5117802;27;20199;-85
2024/03/16 09:33:51;;;;;;;14.70;13.07;;;;;;;12.85;54.63;96869.16;5118545;27;20264;-81
2024/03/16 09:36:19;;;;;;;15.27;13.20;;;;;;;13.34;54.46;96847.19;5117766;27;20291;-81
2024/03/16 09:38:47;;;;;;;18.67;13.67;;;;;;;13.04;55.87;96861.09;5100857;27;20203;-81
2024/03/16 09:41:17;;;;;;;17.17;14.90;;;;;;;13.16;56.41;96872.09;5134926;27;20630;-81
2024/03/16 09:43:47;;;;;;;18.97;14.43;;;;;;;12.98;55.02;96858.53;5117249;27;20572;-82
2024/03/16 09:46:14;;;;;;;16.67;14.30;;;;;;;13.47;54.47;96867.00;5117855;27;20271;-81
2024/03/16 09:48:41;;;;;;;15.63;13.07;;;;;;;13.73;51.04;96861.16;5100676;27;20202;-81
2024/03/16 09:51:09;;;;;;;18.40;13.73;;;;;;;13.90;54.32;96855.94;5117537;27;20194;-81
2024/03/16 09:53:38;;;;;;;14.27;12.63;;;;;;;13.00;54.49;96849.41;5101084;27;20277;-81
2024/03/16 09:56:07;;;;;;;14.53;12.70;;;;;;;13.36;54.56;96861.06;5117988;27;20187;-81
2024/03/16 09:58:35;;;;;;;14.20;11.63;;;;;;;13.54;53.19;96851.34;5117689;27;20226;-81
2024/03/16 10:01:03;;;;;;;13.77;12.37;;;;;;;13.19;54.34;96864.28;5117137;27;20233;-81
2024/03/16 10:03:30;;;;;;;16.90;13.60;;;;;;;13.73;55.05;96858.47;5116951;27;20194;-80
2024/03/16 10:05:59;;;;;;;15.37;13.77;;;;;;;13.43;54.92;96849.97;5117516;27;20201;-81
2024/03/16 10:08:26;;;;;;;14.80;13.30;;;;;;;13.54;54.57;96861.25;5117469;27;20202;-81
2024/03/16 10:11:01;;;;;;;18.57;13.50;;;;;;;12.97;54.96;96854.28;5116757;27;20281;-81
2024/03/16 10:13:29;;;;;;;15.83;13.73;;;;;;;13.21;55.50;96848.75;5117549;27;20240;-81
2024/03/16 10:15:56;;;;;;;15.37;12.83;;;;;;;12.39;57.08;96853.88;5116722;27;20668;-81
2024/03/16 10:18:23;;;;;;;15.70;13.80;;;;;;;12.94;58.65;96851.41;5116404;27;20755;-81
2024/03/16 10:20:50;;;;;;;15.77;13.73;;;;;;;11.91;59.80;96796.16;5117130;27;20394;-81
2024/03/16 10:23:19;;;;;;;15.83;14.13;;;;;;;12.17;59.37;96847.28;5115954;27;20202;-81
2024/03/16 10:25:47;;;;;;;15.27;13.53;;;;;;;12.75;56.59;96848.00;5116572;27;20200;-80
2024/03/16 10:28:15;;;;;;;17.63;12.33;;;;;;;12.93;54.57;96857.81;5099849;27;20592;-80
2024/03/16 10:30:42;;;;;;;15.30;13.00;;;;;;;13.14;55.37;96840.31;5115859;27;20195;-81
2024/03/16 10:33:09;;;;;;;14.33;12.17;;;;;;;12.86;55.93;96846.72;5116938;27;20241;-80
2024/03/16 10:35:39;;;;;;;34.33;20.37;;;;;;;12.69;57.87;96842.72;5116290;27;20326;-80
2024/03/16 10:38:08;;;;;;;15.87;14.27;;;;;;;13.61;56.47;96830.34;5118189;27;20218;-80
2024/03/16 10:50:46;;;;;;;14.77;12.50;;;;;;;13.72;54.04;96833.59;5130754;27;20206;-80
2024/03/16 10:53:13;;;;;;;16.20;12.50;;;;;;;13.53;54.86;96831.06;5095863;28;20231;-81
2024/03/16 10:55:40;;;;;;;11.97;10.77;;;;;;;13.01;55.37;96830.44;5095006;28;20266;-80
2024/03/16 10:58:10;;;;;;;14.30;12.77;;;;;;;13.53;54.07;96822.25;5096230;28;20205;-82
2024/03/16 11:00:37;;;;;;;13.97;11.53;;;;;;;13.26;53.47;96823.81;5095595;28;20215;-80
2024/03/16 11:03:09;;;;;;;16.57;13.37;;;;;;;13.88;52.94;96824.16;5094916;28;20227;-80
2024/03/16 11:05:36;;;;;;;14.90;13.00;;;;;;;13.85;53.69;96813.25;5096191;28;20195;-80
2024/03/16 11:08:25;;;;;;;17.23;12.40;;;;;;;13.99;51.86;96823.94;5095618;28;20222;-80
2024/03/16 11:10:53;;;;;;;15.73;13.20;;;;;;;14.26;54.59;96807.00;5096253;28;20199;-80
2024/03/16 11:16:44;;;;;;;14.40;12.57;;;;;;;13.89;55.18;96801.66;5113665;28;20175;-80
2024/03/16 11:19:17;;;;;;;14.43;12.60;;;;;;;13.86;53.71;96799.59;5095137;28;20660;-80
2024/03/16 11:28:27;;;;;;;17.70;14.80;;;;;;;14.08;52.02;96792.69;5113282;28;20246;-80
2024/03/16 11:30:53;;;;;;;13.90;11.00;;;;;;;13.76;53.34;96753.53;5078291;28;20238;-80
2024/03/16 11:33:20;;;;;;;12.90;11.47;;;;;;;13.72;54.65;96782.78;5094941;28;20203;-80
2024/03/16 11:35:46;;;;;;;13.20;11.83;;;;;;;14.02;54.53;96777.84;5094971;28;20202;-80
2024/03/16 11:38:55;;;;;;;14.87;13.23;;;;;;;13.75;55.61;96779.50;5094606;28;20235;-80
2024/03/16 11:41:21;;;;;;;13.53;12.13;;;;;;;13.83;55.33;96780.69;5112450;28;20277;-80
2024/03/16 11:43:49;;;;;;;12.90;11.43;;;;;;;13.60;53.97;96775.28;5095184;28;20286;-80
2024/03/16 11:46:17;;;;;;;11.87;10.77;;;;;;;13.66;53.92;96775.94;5094645;28;20700;-81
2024/03/16 11:56:23;;;;;;;11.80;10.50;;;;;;;14.00;50.32;96761.28;5112855;28;20220;-80
2024/03/16 11:58:50;;;;;;;12.43;11.00;;;;;;;13.58;52.80;96771.31;5111914;28;20732;-80